This demonstration page uses our WeatherBlox Daily Observations layout. Learn more.

36.17497, -115.13722

Hourly Observations for April 4, 2018

Temp ( °F °C ) Dew Point ( °F °C ) Humidity (%) Winds ( mph kmh ) Pressure ( in mb ) Visibility ( mi km ) Precip ( " mm )
12:53 am 00:53 Clear 57 13.9 17 -8.3 21 21 N 6 9 30 1016 10 16.09344 0 0
1:53 am 01:53 Clear 57 13.9 14 -10 18 18 WNW 3 6 30 1016 10 16.09344 0 0
2:53 am 02:53 Clear 56 13.3 17 -8.3 22 22 WNW 6 9 30 1016 10 16.09344 0 0
3:53 am 03:53 Clear 53 11.7 17 -8.3 24 24 NNW 6 9 30 1016 10 16.09344 0 0
4:53 am 04:53 Clear 53 11.7 18 -7.8 25 25 N 3 6 30 1016 10 16.09344 0 0
5:53 am 05:53 Clear 53 11.7 18 -7.8 25 25 Calm 30 1016 10 16.09344 0 0
6:53 am 06:53 Sunny 53 11.7 20 -6.7 27 27 N 3 6 30.03 1017 10 16.09344 0 0
7:53 am 07:53 Sunny 56 13.3 23 -5 28 28 N 3 6 30.06 1018 10 16.09344 0 0
8:53 am 08:53 Sunny 62 16.7 12 -11.1 14 14 S 5 7 30.03 1017 10 16.09344 0 0
9:53 am 09:53 Sunny 65 18.3 9 -12.8 11 11 Calm 30.03 1017 10 16.09344 0 0
10:53 am 10:53 Sunny 68 20 5 -15 8 8 SE 6 9 30.06 1018 10 16.09344 0 0
11:53 am 11:53 Sunny 71 21.7 2 -16.7 6 6 N 7 11 30.03 1017 10 16.09344 0 0
12:53 pm 12:53 Sunny 73 22.8 2 -16.7 6 6 SE 5 7 30 1016 10 16.09344 0 0
1:53 pm 13:53 Sunny 75 23.9 4 -15.6 6 6 SSE 7 11 29.97 1015 10 16.09344 0 0
2:53 pm 14:53 Sunny 78 25.6 8 -13.3 7 7 Calm 29.94 1014 10 16.09344 0 0
3:53 pm 15:53 Sunny 78 25.6 12 -11.1 8 8 Calm 29.94 1014 10 16.09344 0 0
4:53 pm 16:53 Sunny 79 26.1 15 -9.4 9 9 SE 6 9 29.91 1013 10 16.09344 0 0
5:53 pm 17:53 Sunny 80 26.7 16 -8.9 9 9 E 8 13 29.91 1013 10 16.09344 0 0
6:53 pm 18:53 Sunny 77 25 16 -8.9 10 10 ESE 7 11 29.91 1013 10 16.09344 0 0
7:53 pm 19:53 Clear 75 23.9 16 -8.9 10 10 ESE 3 6 29.91 1013 10 16.09344 0 0
8:53 pm 20:53 Clear 72 22.2 19 -7.2 13 13 NNW 5 7 29.94 1014 10 16.09344 0 0
9:53 pm 21:53 Clear 70 21.1 25 -3.9 18 18 WNW 5 7 29.94 1014 10 16.09344 0 0
10:53 pm 22:53 Clear 66 18.9 25 -3.9 21 21 WNW 6 9 29.94 1014 10 16.09344 0 0
11:53 pm 23:53 Clear 64 17.8 26 -3.3 24 24 NW 5 7 29.94 1014 10 16.09344 0 0

Powered by AerisWeather